This is the latest recevied weather packets stored in our database for station/object E25RIV-1. If no packets are shown the sender has not sent any weather packets the latest 10 day(s).
| Time | Temp. | Humidity | Pressure | Rain* | Wind** | Luminosity | Snow |
|---|---|---|---|---|---|---|---|
| 1777967407 | 37.22° C | 51% | 994 hPa | - | - | 0 W/m² | - |
| 1777966783 | 37.22° C | 50% | 993 hPa | - | - | 0 W/m² | - |
| 1777966159 | 36.67° C | 53% | 994 hPa | - | - | 0 W/m² | - |
| 1777965535 | 36.67° C | 53% | 995 hPa | - | - | 0 W/m² | - |
| 1777964911 | 36.11° C | 55% | 996 hPa | - | - | 0 W/m² | - |
| 1777964286 | 35.56° C | 56% | 997 hPa | - | - | 0 W/m² | - |
| 1777963663 | 34.44° C | 62% | 1001 hPa | - | - | 0 W/m² | - |
| 1777963039 | 35.56° C | 60% | 999 hPa | - | - | 0 W/m² | - |
| 1777962414 | 34.44° C | 61% | 1000 hPa | - | - | 0 W/m² | - |
| 1777961790 | 34.44° C | 63% | 1001 hPa | - | - | 0 W/m² | - |
| 1777961166 | 35° C | 63% | 1002 hPa | - | - | 0 W/m² | - |
| 1777960542 | 35.56° C | 62% | 1001 hPa | - | - | 0 W/m² | - |
| 1777959920 | 35.56° C | 58% | 999 hPa | - | - | 0 W/m² | - |
| 1777959294 | 35° C | 61% | 1000 hPa | - | - | 0 W/m² | - |
| 1777958670 | 35° C | 65% | 1002 hPa | - | - | 0 W/m² | - |
| 1777958046 | 34.44° C | 67% | 1003 hPa | - | - | 0 W/m² | - |
| 1777957422 | 33.33° C | 68% | 1004 hPa | - | - | 0 W/m² | - |
| 1777956798 | 33.89° C | 63% | 1001 hPa | - | - | 0 W/m² | - |
| 1777956174 | 33.89° C | 68% | 1004 hPa | - | - | 0 W/m² | - |
| 1777955550 | 33.33° C | 67% | 1003 hPa | - | - | 0 W/m² | - |
| 1777954926 | 33.33° C | 70% | 1004 hPa | - | - | 0 W/m² | - |
| 1777954302 | 33.33° C | 67% | 1002 hPa | - | - | 0 W/m² | - |
| 1777953678 | 33.33° C | 73% | 1004 hPa | - | - | 0 W/m² | - |
| 1777953054 | 32.78° C | 76% | 1005 hPa | - | - | 0 W/m² | - |
| 1777952433 | 32.78° C | 76% | 1005 hPa | - | - | 0 W/m² | - |
* Rain since midnight (hover to see other rain measurements)
** Current wind speed in m/s (hover to see current wind gust speed)